Time;durP1;ratioP1;P1;durP2;ratioP2;P2;SDS_P1;SDS_P2;PMS_P1;PMS_P2;Temp;Humidity;BMP_temperature;BMP_pressure;BME280_temperature;BME280_humidity;BME280_pressure;Samples;Min_cycle;Max_cycle;Signal;HPM_P1;HPM_P2
2022/03/10 00:01:10;;;;;;;0.00;0.00;;;3.30;99.90;;;;;;5006420;28;20408;-62
2022/03/10 00:03:36;;;;;;;0.00;0.00;;;3.30;99.90;;;;;;4997226;28;20245;-62
2022/03/10 00:06:01;;;;;;;0.00;0.00;;;3.30;99.90;;;;;;5005759;28;20133;-62
2022/03/10 00:08:27;;;;;;;0.00;0.00;;;3.50;99.90;;;;;;4987298;28;20042;-63
2022/03/10 00:10:53;;;;;;;0.00;0.00;;;3.20;99.90;;;;;;5005187;28;20505;-61
2022/03/10 00:13:18;;;;;;;0.00;0.00;;;3.20;99.90;;;;;;5005534;28;20049;-63
2022/03/10 00:15:44;;;;;;;0.00;0.00;;;3.20;99.90;;;;;;5005151;28;20405;-62
2022/03/10 00:18:09;;;;;;;0.00;0.00;;;4.50;99.90;;;;;;5004300;28;20050;-62
2022/03/10 00:20:35;;;;;;;0.00;0.00;;;3.30;99.90;;;;;;5004508;28;20046;-63
2022/03/10 00:23:01;;;;;;;0.00;0.00;;;3.10;99.90;;;;;;5005200;28;20281;-62
2022/03/10 00:25:27;;;;;;;0.00;0.00;;;3.00;99.90;;;;;;4987467;28;20097;-63
2022/03/10 00:27:52;;;;;;;0.35;0.20;;;3.00;99.90;;;;;;4987675;28;20073;-62
2022/03/10 00:30:19;;;;;;;0.00;0.00;;;2.90;99.90;;;;;;5005312;28;20552;-63
2022/03/10 00:32:47;;;;;;;0.00;0.00;;;2.90;99.90;;;;;;4986414;28;20077;-62
2022/03/10 00:35:18;;;;;;;0.10;0.10;;;2.80;99.90;;;;;;5004595;28;20099;-63
2022/03/10 00:37:45;;;;;;;0.00;0.00;;;2.70;99.90;;;;;;5004490;28;20108;-62
2022/03/10 00:40:12;;;;;;;0.00;0.00;;;2.70;99.90;;;;;;5004619;28;20058;-62
2022/03/10 00:42:39;;;;;;;0.00;0.00;;;2.70;99.90;;;;;;5004272;28;20057;-62
2022/03/10 00:45:06;;;;;;;0.00;0.00;;;3.70;99.90;;;;;;5005070;28;20038;-63
2022/03/10 00:47:32;;;;;;;0.00;0.00;;;2.50;99.90;;;;;;5004553;28;20057;-62
2022/03/10 00:49:58;;;;;;;0.00;0.00;;;2.50;99.90;;;;;;5002594;28;20092;-62
2022/03/10 00:52:24;;;;;;;0.00;0.00;;;2.50;99.90;;;;;;5004658;28;20182;-62
2022/03/10 00:54:50;;;;;;;0.00;0.00;;;2.40;99.90;;;;;;5004139;28;20057;-62
2022/03/10 00:57:16;;;;;;;0.00;0.00;;;2.70;99.90;;;;;;5004855;28;20050;-62
2022/03/10 00:59:41;;;;;;;0.00;0.00;;;2.20;99.90;;;;;;5003472;28;20041;-60
2022/03/10 01:02:07;;;;;;;0.00;0.00;;;2.20;99.90;;;;;;5008854;28;20172;-62
2022/03/10 01:04:33;;;;;;;0.00;0.00;;;2.10;99.90;;;;;;5011031;28;20073;-62
2022/03/10 01:06:58;;;;;;;0.00;0.00;;;2.00;99.90;;;;;;5003474;28;20484;-63
2022/03/10 01:09:24;;;;;;;0.00;0.00;;;2.00;99.90;;;;;;5004440;28;20053;-63
2022/03/10 01:11:50;;;;;;;0.00;0.00;;;2.00;99.90;;;;;;5003824;28;20053;-62
2022/03/10 01:14:15;;;;;;;0.00;0.00;;;2.00;99.90;;;;;;5004347;28;20512;-62
2022/03/10 01:16:41;;;;;;;1.65;0.20;;;2.00;99.90;;;;;;5002918;28;20042;-61
2022/03/10 01:19:08;;;;;;;0.00;0.00;;;2.30;99.90;;;;;;5004234;28;20038;-62
2022/03/10 01:21:34;;;;;;;0.00;0.00;;;2.00;99.90;;;;;;5004417;28;20045;-62
2022/03/10 01:24:00;;;;;;;0.03;0.03;;;2.10;99.90;;;;;;5003886;28;20042;-63
2022/03/10 01:26:26;;;;;;;0.00;0.00;;;2.60;99.90;;;;;;5004090;28;20053;-62
2022/03/10 01:28:52;;;;;;;0.00;0.00;;;2.10;99.90;;;;;;5003589;28;20041;-62
2022/03/10 01:31:18;;;;;;;0.00;0.00;;;2.00;99.90;;;;;;5003565;28;20916;-62
2022/03/10 01:33:44;;;;;;;0.00;0.00;;;2.00;99.90;;;;;;5003522;28;20485;-62
2022/03/10 01:36:09;;;;;;;0.00;0.00;;;2.00;99.90;;;;;;4986590;28;20591;-63
2022/03/10 01:38:39;;;;;;;0.00;0.00;;;2.00;99.90;;;;;;5003528;28;20038;-61
2022/03/10 01:41:05;;;;;;;0.00;0.00;;;2.00;99.90;;;;;;4985983;28;20049;-63
2022/03/10 01:43:31;;;;;;;0.00;0.00;;;1.90;99.90;;;;;;5004249;28;20077;-62
2022/03/10 01:45:57;;;;;;;0.00;0.00;;;2.10;99.90;;;;;;5002880;28;20077;-62
2022/03/10 01:48:23;;;;;;;0.00;0.00;;;2.10;99.90;;;;;;5003720;28;20038;-63
2022/03/10 01:50:49;;;;;;;0.00;0.00;;;2.00;99.90;;;;;;5002428;28;20038;-62
2022/03/10 01:53:15;;;;;;;0.00;0.00;;;2.10;99.90;;;;;;5003595;28;20615;-62
2022/03/10 01:55:41;;;;;;;0.00;0.00;;;2.10;99.90;;;;;;5003264;28;20045;-62
2022/03/10 01:58:08;;;;;;;0.00;0.00;;;2.10;99.90;;;;;;5002776;28;20129;-62
2022/03/10 02:00:33;;;;;;;0.00;0.00;;;2.20;99.90;;;;;;5003872;28;20050;-61
2022/03/10 02:02:59;;;;;;;0.00;0.00;;;2.20;99.90;;;;;;5013660;28;20048;-62
2022/03/10 02:05:25;;;;;;;0.00;0.00;;;2.20;99.90;;;;;;5003601;28;20050;-63
2022/03/10 02:10:35;;;;;;;0.00;0.00;;;2.30;99.90;;;;;;5002967;28;20661;-64
2022/03/10 02:13:01;;;;;;;0.00;0.00;;;2.30;99.90;;;;;;5046479;22;20057;-70
2022/03/10 02:18:13;;;;;;;0.00;0.00;;;2.30;99.90;;;;;;5057313;28;20164;-67
2022/03/10 02:20:40;;;;;;;0.00;0.00;;;2.30;99.90;;;;;;5025031;28;20052;-67
2022/03/10 02:23:08;;;;;;;0.40;0.40;;;2.30;99.90;;;;;;5042772;28;20086;-66
2022/03/10 02:25:36;;;;;;;0.00;0.00;;;2.20;99.90;;;;;;5043216;28;20043;-67
2022/03/10 02:28:02;;;;;;;0.00;0.00;;;2.20;99.90;;;;;;5042606;28;20190;-67
2022/03/10 02:30:29;;;;;;;0.75;0.43;;;2.20;99.90;;;;;;5042697;28;20503;-67
2022/03/10 02:32:55;;;;;;;0.00;0.00;;;2.30;99.90;;;;;;5041613;28;20091;-67
2022/03/10 02:35:21;;;;;;;0.10;0.10;;;2.20;99.90;;;;;;5042193;28;20084;-67
2022/03/10 02:37:46;;;;;;;0.00;0.00;;;2.20;99.90;;;;;;5042216;28;20052;-67
2022/03/10 02:40:13;;;;;;;0.00;0.00;;;2.10;99.90;;;;;;5042860;28;20087;-67
2022/03/10 02:42:39;;;;;;;0.00;0.00;;;2.20;99.90;;;;;;5042494;28;20044;-63
2022/03/10 02:45:06;;;;;;;0.00;0.00;;;2.20;99.90;;;;;;5042783;28;20424;-67
2022/03/10 02:47:32;;;;;;;0.00;0.00;;;2.10;99.90;;;;;;5024488;28;20071;-67
2022/03/10 02:49:57;;;;;;;0.20;0.20;;;2.10;99.90;;;;;;5041766;28;20047;-69
2022/03/10 02:52:23;;;;;;;0.00;0.00;;;2.10;99.90;;;;;;5042584;28;20041;-69
2022/03/10 02:54:49;;;;;;;0.00;0.00;;;2.10;99.90;;;;;;5042109;28;20048;-69
2022/03/10 02:57:15;;;;;;;0.00;0.00;;;2.00;99.90;;;;;;5042359;28;20058;-69
2022/03/10 02:59:42;;;;;;;0.00;0.00;;;2.10;99.90;;;;;;5041990;28;20148;-69
2022/03/10 03:02:08;;;;;;;0.00;0.00;;;2.10;99.90;;;;;;5047461;28;20123;-69
2022/03/10 03:04:34;;;;;;;0.00;0.00;;;2.10;99.90;;;;;;5055431;28;20048;-70
2022/03/10 03:07:00;;;;;;;0.00;0.00;;;2.00;99.90;;;;;;5048924;28;20041;-69
2022/03/10 03:09:25;;;;;;;0.00;0.00;;;2.00;99.90;;;;;;5048539;28;20045;-69
2022/03/10 03:11:51;;;;;;;0.00;0.00;;;2.00;99.90;;;;;;5048419;28;20045;-66
2022/03/10 03:14:17;;;;;;;0.00;0.00;;;2.00;99.90;;;;;;5049171;28;20539;-69
2022/03/10 03:16:43;;;;;;;0.00;0.00;;;1.90;99.90;;;;;;5047592;28;20495;-69
2022/03/10 03:19:09;;;;;;;0.00;0.00;;;1.90;99.90;;;;;;5049027;28;20397;-69
2022/03/10 03:21:35;;;;;;;0.00;0.00;;;1.90;99.90;;;;;;5048933;28;20037;-70
2022/03/10 03:24:00;;;;;;;0.00;0.00;;;1.90;99.90;;;;;;5031253;28;20049;-70
2022/03/10 03:26:26;;;;;;;0.00;0.00;;;2.00;99.90;;;;;;5048395;28;20518;-70
2022/03/10 03:28:52;;;;;;;0.00;0.00;;;2.00;99.90;;;;;;5048660;28;20045;-67
2022/03/10 03:31:18;;;;;;;0.00;0.00;;;2.00;99.90;;;;;;5048317;28;20041;-67
2022/03/10 03:33:43;;;;;;;0.00;0.00;;;2.00;99.90;;;;;;5048310;28;20055;-67
2022/03/10 03:36:09;;;;;;;0.00;0.00;;;1.90;99.90;;;;;;5047635;28;20045;-67
2022/03/10 03:38:36;;;;;;;0.00;0.00;;;1.90;99.90;;;;;;5048751;28;20063;-67
2022/03/10 03:41:01;;;;;;;0.10;0.10;;;1.80;99.90;;;;;;5048974;28;20131;-67
2022/03/10 03:43:28;;;;;;;0.00;0.00;;;1.80;99.90;;;;;;5048216;28;20167;-67
2022/03/10 03:45:56;;;;;;;0.00;0.00;;;1.70;99.90;;;;;;5048015;28;20495;-67
2022/03/10 03:48:25;;;;;;;0.00;0.00;;;1.70;99.90;;;;;;5048897;28;20127;-66
2022/03/10 03:50:51;;;;;;;0.00;0.00;;;1.70;99.90;;;;;;5047908;28;20041;-69
2022/03/10 03:53:17;;;;;;;0.00;0.00;;;1.70;99.90;;;;;;5031030;28;20061;-67
2022/03/10 03:55:43;;;;;;;0.00;0.00;;;1.70;99.90;;;;;;5048456;28;20045;-68
2022/03/10 03:58:08;;;;;;;0.00;0.00;;;2.30;99.90;;;;;;5030533;28;20487;-69
2022/03/10 04:00:36;;;;;;;0.00;0.00;;;1.80;99.90;;;;;;5048015;28;20045;-68
2022/03/10 04:03:09;;;;;;;0.00;0.00;;;1.80;99.90;;;;;;5060241;28;20052;-68
2022/03/10 04:05:35;;;;;;;0.00;0.00;;;1.80;99.90;;;;;;5048443;28;20029;-68
2022/03/10 04:08:01;;;;;;;0.00;0.00;;;1.70;99.90;;;;;;5048549;28;20053;-68
2022/03/10 04:10:27;;;;;;;0.00;0.00;;;1.80;99.90;;;;;;5048744;28;20087;-68
2022/03/10 04:12:52;;;;;;;0.00;0.00;;;1.70;99.90;;;;;;5047824;28;20047;-70
2022/03/10 04:15:18;;;;;;;0.00;0.00;;;1.70;99.90;;;;;;5044596;28;20474;-67
2022/03/10 04:17:44;;;;;;;0.10;0.10;;;1.70;99.90;;;;;;5045007;28;20499;-67
2022/03/10 04:20:13;;;;;;;0.00;0.00;;;1.70;99.90;;;;;;5045533;28;20068;-68
2022/03/10 04:22:39;;;;;;;0.00;0.00;;;1.80;99.90;;;;;;5044914;28;20049;-65
2022/03/10 04:25:06;;;;;;;0.00;0.00;;;1.70;99.90;;;;;;5043534;28;20088;-69
2022/03/10 04:27:32;;;;;;;0.00;0.00;;;1.70;99.90;;;;;;5045609;28;20120;-68
2022/03/10 04:29:58;;;;;;;0.00;0.00;;;1.70;99.90;;;;;;5044936;28;20480;-68
2022/03/10 04:32:24;;;;;;;0.00;0.00;;;1.70;99.90;;;;;;5044126;28;20481;-67
2022/03/10 04:34:49;;;;;;;0.00;0.00;;;1.70;99.90;;;;;;5044293;28;20104;-68
2022/03/10 04:37:15;;;;;;;0.00;0.00;;;1.90;99.90;;;;;;5045077;28;20094;-68
2022/03/10 04:39:40;;;;;;;0.00;0.00;;;1.80;99.90;;;;;;5044780;28;20041;-68
2022/03/10 04:42:06;;;;;;;0.00;0.00;;;1.70;99.90;;;;;;5043277;28;20071;-68
2022/03/10 04:44:32;;;;;;;0.15;0.15;;;1.80;99.90;;;;;;5045106;28;20469;-67
2022/03/10 04:46:58;;;;;;;0.00;0.00;;;1.80;99.90;;;;;;5043890;28;20048;-66
2022/03/10 04:49:24;;;;;;;0.00;0.00;;;1.80;99.90;;;;;;5044597;28;20047;-68
2022/03/10 04:51:50;;;;;;;0.00;0.00;;;1.70;99.90;;;;;;5044098;28;20041;-68
2022/03/10 04:54:15;;;;;;;0.00;0.00;;;1.70;99.90;;;;;;5044824;28;20073;-67
2022/03/10 04:56:41;;;;;;;0.00;0.00;;;1.70;99.90;;;;;;5044687;28;20041;-67
2022/03/10 04:59:06;;;;;;;0.25;0.25;;;0.90;99.90;;;;;;5043961;28;20049;-67
2022/03/10 05:01:32;;;;;;;0.00;0.00;;;1.60;99.90;;;;;;5046625;28;20048;-68
2022/03/10 05:03:58;;;;;;;0.00;0.00;;;1.60;99.90;;;;;;5041278;28;20616;-67
2022/03/10 05:06:23;;;;;;;0.00;0.00;;;1.60;99.90;;;;;;5044226;28;20044;-67
2022/03/10 05:08:49;;;;;;;0.17;0.17;;;1.60;99.90;;;;;;5043920;28;20037;-67
2022/03/10 05:11:15;;;;;;;0.00;0.00;;;1.60;99.90;;;;;;5044457;28;20094;-67
2022/03/10 05:13:40;;;;;;;0.00;0.00;;;1.70;99.90;;;;;;5025976;28;20053;-66
2022/03/10 05:16:06;;;;;;;0.20;0.20;;;1.70;99.90;;;;;;5042936;28;20489;-67
2022/03/10 05:18:31;;;;;;;0.00;0.00;;;1.70;99.90;;;;;;5044665;28;20048;-67
2022/03/10 05:20:57;;;;;;;0.10;0.10;;;1.70;99.90;;;;;;5043769;28;20064;-69
2022/03/10 05:23:23;;;;;;;0.00;0.00;;;1.70;99.90;;;;;;5044008;28;20504;-67
2022/03/10 05:25:48;;;;;;;2.13;0.82;;;1.70;99.90;;;;;;5042922;28;20048;-68
2022/03/10 05:28:14;;;;;;;0.45;0.22;;;1.80;99.90;;;;;;5043439;28;20049;-67
2022/03/10 05:30:45;;;;;;;0.00;0.00;;;1.30;99.90;;;;;;5042743;28;20395;-67
2022/03/10 05:33:11;;;;;;;0.00;0.00;;;1.80;99.90;;;;;;5043818;28;20033;-68
2022/03/10 05:35:37;;;;;;;0.00;0.00;;;1.80;99.90;;;;;;5043633;28;20054;-68
2022/03/10 05:38:03;;;;;;;0.00;0.00;;;2.70;99.90;;;;;;5044057;28;20045;-67
2022/03/10 05:40:29;;;;;;;0.00;0.00;;;1.70;99.90;;;;;;5043297;28;20048;-68
2022/03/10 05:42:56;;;;;;;0.00;0.00;;;1.60;99.90;;;;;;5042927;28;20068;-67
2022/03/10 05:45:23;;;;;;;0.00;0.00;;;1.60;99.90;;;;;;5043200;28;20037;-67
2022/03/10 05:47:50;;;;;;;0.00;0.00;;;1.70;99.90;;;;;;5024887;28;20045;-67
2022/03/10 05:50:17;;;;;;;0.00;0.00;;;1.60;99.90;;;;;;5043430;28;20157;-68
2022/03/10 05:52:45;;;;;;;0.47;0.47;;;1.60;99.90;;;;;;5042770;28;20037;-67
2022/03/10 05:55:11;;;;;;;0.00;0.00;;;2.80;99.90;;;;;;5043290;28;20124;-67
2022/03/10 05:57:37;;;;;;;0.00;0.00;;;1.60;99.90;;;;;;5043060;28;20079;-67
2022/03/10 06:00:04;;;;;;;0.90;0.63;;;1.60;99.90;;;;;;5043128;28;20044;-70
2022/03/10 06:02:30;;;;;;;0.00;0.00;;;1.60;99.90;;;;;;5052100;28;20153;-67
2022/03/10 06:05:00;;;;;;;0.00;0.00;;;1.70;99.90;;;;;;5045495;28;20076;-68
2022/03/10 06:07:27;;;;;;;0.00;0.00;;;1.80;99.90;;;;;;5043375;28;20124;-67
2022/03/10 06:09:54;;;;;;;0.00;0.00;;;1.90;99.90;;;;;;5042802;28;20060;-67
2022/03/10 06:12:24;;;;;;;0.00;0.00;;;1.70;99.90;;;;;;5042732;28;20049;-67
2022/03/10 06:15:09;;;;;;;0.00;0.00;;;1.70;99.90;;;;;;5041621;28;20431;-69
2022/03/10 06:17:35;;;;;;;0.00;0.00;;;1.70;99.90;;;;;;5042533;28;20041;-67
2022/03/10 06:20:02;;;;;;;0.00;0.00;;;1.70;99.90;;;;;;5041984;28;20055;-68
2022/03/10 06:22:29;;;;;;;0.00;0.00;;;1.70;99.90;;;;;;5042927;28;20040;-67
2022/03/10 06:24:55;;;;;;;0.00;0.00;;;1.60;99.90;;;;;;5042334;28;20044;-68
2022/03/10 06:27:24;;;;;;;0.00;0.00;;;1.60;99.90;;;;;;5042664;28;20045;-67
2022/03/10 06:29:51;;;;;;;0.00;0.00;;;1.60;99.90;;;;;;5042471;28;20086;-68
2022/03/10 06:32:18;;;;;;;0.00;0.00;;;1.60;99.90;;;;;;5042072;28;20056;-68
2022/03/10 06:34:45;;;;;;;0.00;0.00;;;1.70;99.90;;;;;;5042121;28;20443;-68
2022/03/10 06:37:12;;;;;;;0.00;0.00;;;1.70;99.90;;;;;;5042171;28;20048;-68
2022/03/10 06:39:38;;;;;;;0.00;0.00;;;1.90;99.90;;;;;;5042733;28;20049;-68
2022/03/10 06:42:04;;;;;;;0.00;0.00;;;1.70;99.90;;;;;;5042650;28;20099;-68
2022/03/10 06:44:30;;;;;;;0.00;0.00;;;1.80;99.90;;;;;;5041717;28;20618;-67
2022/03/10 06:46:56;;;;;;;0.00;0.00;;;1.90;99.90;;;;;;5041491;28;20096;-67
2022/03/10 06:49:22;;;;;;;0.10;0.10;;;1.90;99.90;;;;;;5042630;28;20072;-68
2022/03/10 06:51:48;;;;;;;0.10;0.10;;;1.90;99.90;;;;;;5041625;28;20570;-67
2022/03/10 06:54:15;;;;;;;0.00;0.00;;;2.00;99.90;;;;;;5042818;28;20049;-67
2022/03/10 06:56:41;;;;;;;0.00;0.00;;;2.10;99.90;;;;;;5042198;28;20036;-67
2022/03/10 06:59:07;;;;;;;0.00;0.00;;;2.10;99.90;;;;;;5041699;28;20239;-68
2022/03/10 07:01:32;;;;;;;0.00;0.00;;;2.20;99.90;;;;;;5044291;28;20132;-68
2022/03/10 07:03:59;;;;;;;0.00;0.00;;;2.30;99.90;;;;;;5050993;28;20084;-68
2022/03/10 07:06:26;;;;;;;0.00;0.00;;;2.40;99.90;;;;;;5041251;28;20049;-68
2022/03/10 07:08:52;;;;;;;0.10;0.10;;;2.70;99.90;;;;;;5041468;28;20048;-68
2022/03/10 07:11:18;;;;;;;0.00;0.00;;;2.50;99.90;;;;;;5042398;28;20041;-67
2022/03/10 07:13:45;;;;;;;0.00;0.00;;;2.60;99.90;;;;;;5041879;28;20419;-66
2022/03/10 07:16:11;;;;;;;0.00;0.00;;;3.00;99.90;;;;;;5041076;28;20079;-68
2022/03/10 07:18:37;;;;;;;0.00;0.00;;;2.60;99.90;;;;;;5024469;28;20072;-68
2022/03/10 07:21:04;;;;;;;0.73;0.73;;;2.90;99.90;;;;;;5042482;28;20041;-68
2022/03/10 07:23:31;;;;;;;0.00;0.00;;;2.70;99.90;;;;;;5042684;28;20044;-68
2022/03/10 07:25:56;;;;;;;0.00;0.00;;;2.80;99.90;;;;;;5040705;28;20120;-68
2022/03/10 07:28:22;;;;;;;0.00;0.00;;;2.80;99.90;;;;;;5042199;28;20129;-69
2022/03/10 07:30:49;;;;;;;0.00;0.00;;;3.10;99.90;;;;;;5040730;28;20491;-69
2022/03/10 07:33:15;;;;;;;0.57;0.38;;;2.90;99.90;;;;;;5041642;28;20037;-68
2022/03/10 07:35:40;;;;;;;0.00;0.00;;;3.00;99.90;;;;;;5042036;28;20032;-68
2022/03/10 07:38:06;;;;;;;0.00;0.00;;;3.10;99.90;;;;;;5024341;28;20517;-68
2022/03/10 07:40:32;;;;;;;0.00;0.00;;;3.20;99.90;;;;;;5042038;28;20049;-68
2022/03/10 07:42:57;;;;;;;0.20;0.20;;;3.20;99.90;;;;;;5041712;28;20124;-68
2022/03/10 07:45:23;;;;;;;0.13;0.13;;;3.20;99.90;;;;;;5041397;28;20045;-68
2022/03/10 07:47:49;;;;;;;0.00;0.00;;;3.30;99.90;;;;;;5041352;28;20131;-68
2022/03/10 07:50:15;;;;;;;0.00;0.00;;;3.30;99.90;;;;;;5043227;28;20575;-68
2022/03/10 07:52:41;;;;;;;0.00;0.00;;;;;;;;;;5045561;28;20614;-68
2022/03/10 07:55:08;;;;;;;0.10;0.10;;;3.50;99.90;;;;;;5046092;28;20091;-67
2022/03/10 07:57:35;;;;;;;0.00;0.00;;;3.60;99.90;;;;;;5045697;28;20045;-67
2022/03/10 08:00:04;;;;;;;0.00;0.00;;;3.70;99.90;;;;;;5044877;28;20131;-67
2022/03/10 08:02:30;;;;;;;0.00;0.00;;;3.80;99.90;;;;;;5054160;28;20044;-67
2022/03/10 08:04:56;;;;;;;0.00;0.00;;;3.80;99.90;;;;;;5047967;28;20240;-67
2022/03/10 08:07:22;;;;;;;0.00;0.00;;;3.80;99.90;;;;;;5045268;28;20040;-67
2022/03/10 08:09:48;;;;;;;0.00;0.00;;;3.90;99.90;;;;;;5044868;28;20076;-67
2022/03/10 08:12:13;;;;;;;0.95;0.95;;;4.00;99.90;;;;;;5045216;28;20085;-67
2022/03/10 08:14:39;;;;;;;3.33;2.25;;;4.10;99.90;;;;;;5043938;28;20057;-67
2022/03/10 08:17:05;;;;;;;4.38;0.93;;;4.00;99.90;;;;;;5045246;28;20771;-67
2022/03/10 08:19:31;;;;;;;0.10;0.10;;;4.20;99.90;;;;;;5045601;28;20056;-67
2022/03/10 08:21:57;;;;;;;0.25;0.25;;;4.30;99.90;;;;;;5044512;28;20075;-67
2022/03/10 08:24:22;;;;;;;0.13;0.13;;;4.30;99.90;;;;;;5027316;28;20045;-67
2022/03/10 08:26:48;;;;;;;0.00;0.00;;;4.40;99.90;;;;;;5044833;28;20047;-67
2022/03/10 08:29:14;;;;;;;0.00;0.00;;;4.50;99.90;;;;;;5044912;28;20033;-67
2022/03/10 08:31:41;;;;;;;0.00;0.00;;;4.80;99.90;;;;;;5043385;28;20114;-67
2022/03/10 08:34:07;;;;;;;0.00;0.00;;;4.80;99.90;;;;;;5045311;28;20423;-67
2022/03/10 08:36:32;;;;;;;0.00;0.00;;;5.80;99.90;;;;;;5027360;28;20044;-67
2022/03/10 08:38:58;;;;;;;2.17;1.55;;;5.10;99.90;;;;;;5026520;28;20594;-67
2022/03/10 08:41:24;;;;;;;0.00;0.00;;;5.20;99.90;;;;;;5044452;28;20667;-67
2022/03/10 08:43:49;;;;;;;0.30;0.25;;;5.30;99.90;;;;;;5044391;28;20443;-67
2022/03/10 08:46:15;;;;;;;0.45;0.40;;;5.50;99.90;;;;;;5043792;28;20044;-67
2022/03/10 08:48:44;;;;;;;0.00;0.00;;;5.50;99.90;;;;;;5043740;28;20045;-67
2022/03/10 08:51:09;;;;;;;0.00;0.00;;;5.60;99.90;;;;;;5044816;28;20199;-67
2022/03/10 08:53:36;;;;;;;0.00;0.00;;;5.80;99.90;;;;;;5044619;28;20571;-67
2022/03/10 08:56:02;;;;;;;0.10;0.10;;;6.00;99.90;;;;;;5044609;28;20049;-67
2022/03/10 08:58:28;;;;;;;1.63;1.13;;;6.10;99.90;;;;;;5044104;28;20339;-67
2022/03/10 09:00:54;;;;;;;0.57;0.30;;;6.30;99.90;;;;;;5043406;28;20503;-66
2022/03/10 09:03:20;;;;;;;0.30;0.30;;;6.40;99.90;;;;;;5055689;28;20418;-67
2022/03/10 09:05:46;;;;;;;0.25;0.25;;;6.50;99.90;;;;;;5043663;28;20036;-67
2022/03/10 09:08:12;;;;;;;0.95;0.90;;;6.70;99.90;;;;;;5044382;28;20495;-67
2022/03/10 09:10:37;;;;;;;0.10;0.10;;;7.90;99.90;;;;;;5044243;28;20467;-66
2022/03/10 09:13:04;;;;;;;0.08;0.08;;;7.00;99.90;;;;;;5044014;28;20053;-67
2022/03/10 09:15:31;;;;;;;0.00;0.00;;;7.10;99.90;;;;;;5043211;28;20142;-67
2022/03/10 09:17:57;;;;;;;0.00;0.00;;;7.80;99.90;;;;;;5043920;28;20045;-67
2022/03/10 09:20:23;;;;;;;0.10;0.10;;;7.50;99.90;;;;;;5043875;28;20056;-67
2022/03/10 09:22:49;;;;;;;0.30;0.30;;;7.90;99.90;;;;;;5043217;28;20120;-64
2022/03/10 09:25:14;;;;;;;0.20;0.20;;;8.60;99.90;;;;;;5025900;28;20131;-67
2022/03/10 09:27:41;;;;;;;0.00;0.00;;;9.10;99.90;;;;;;5043552;28;20120;-66
2022/03/10 09:30:09;;;;;;;0.10;0.10;;;9.60;99.90;;;;;;5042273;28;20045;-66
2022/03/10 09:32:39;;;;;;;0.68;0.17;;;10.30;99.90;;;;;;5043750;28;20045;-63
2022/03/10 09:35:07;;;;;;;0.35;0.35;;;11.00;99.90;;;;;;5043535;28;20076;-66
2022/03/10 09:37:33;;;;;;;0.17;0.17;;;10.80;99.90;;;;;;5043419;28;20052;-66
2022/03/10 09:39:59;;;;;;;0.10;0.10;;;10.70;99.90;;;;;;5043587;28;20049;-66
2022/03/10 09:42:29;;;;;;;0.22;0.20;;;10.40;99.90;;;;;;5043177;28;20598;-66
2022/03/10 09:44:59;;;;;;;0.15;0.15;;;11.50;99.90;;;;;;5042217;28;20087;-67
2022/03/10 09:47:26;;;;;;;0.10;0.10;;;11.50;99.90;;;;;;5043472;28;20467;-66
2022/03/10 09:49:55;;;;;;;0.20;0.20;;;11.90;99.90;;;;;;5042973;28;20060;-66
2022/03/10 09:52:23;;;;;;;0.10;0.10;;;11.50;99.90;;;;;;5025050;28;20094;-66
2022/03/10 09:54:49;;;;;;;0.00;0.00;;;11.40;99.90;;;;;;5042816;28;20051;-66
2022/03/10 09:57:16;;;;;;;0.10;0.10;;;11.30;99.90;;;;;;5042955;28;20124;-66
2022/03/10 09:59:57;;;;;;;0.00;0.00;;;11.60;99.90;;;;;;5041893;28;20135;-67
2022/03/10 10:02:23;;;;;;;0.50;0.50;;;11.50;99.90;;;;;;5050416;28;20048;-67
2022/03/10 10:04:49;;;;;;;0.00;0.00;;;11.60;99.90;;;;;;5028228;28;20553;-67
2022/03/10 10:07:21;;;;;;;0.90;0.90;;;12.60;99.60;;;;;;5043282;28;20758;-67
2022/03/10 10:09:53;;;;;;;0.10;0.10;;;12.30;98.00;;;;;;5042298;28;20041;-67
2022/03/10 10:12:22;;;;;;;0.10;0.10;;;12.50;98.40;;;;;;5024164;28;20081;-67
2022/03/10 10:14:49;;;;;;;0.98;0.95;;;12.70;98.10;;;;;;5041518;28;20076;-67
2022/03/10 10:17:15;;;;;;;0.43;0.40;;;12.50;98.20;;;;;;5042984;28;20048;-67
2022/03/10 10:19:43;;;;;;;0.47;0.28;;;12.10;97.20;;;;;;5042534;28;20045;-64
2022/03/10 10:22:19;;;;;;;0.13;0.08;;;11.80;98.60;;;;;;5042743;28;20079;-67
2022/03/10 10:24:54;;;;;;;0.38;0.38;;;12.00;98.50;;;;;;5041097;28;20115;-67
2022/03/10 10:27:23;;;;;;;0.98;0.95;;;12.30;97.50;;;;;;5042539;28;20049;-67
2022/03/10 10:29:55;;;;;;;1.35;0.10;;;11.90;96.50;;;;;;5041207;28;20373;-67
2022/03/10 10:32:46;;;;;;;0.28;0.28;;;11.90;96.40;;;;;;5042626;28;20052;-67
2022/03/10 10:35:20;;;;;;;3.53;0.20;;;12.40;96.40;;;;;;5034727;28;20450;-67
2022/03/10 10:37:49;;;;;;;0.75;0.75;;;12.60;96.00;;;;;;5041978;28;20044;-67
2022/03/10 10:40:28;;;;;;;0.20;0.20;;;13.00;95.30;;;;;;5042528;28;20040;-67
2022/03/10 10:42:54;;;;;;;0.13;0.13;;;13.30;93.70;;;;;;5041648;28;20132;-67
2022/03/10 10:45:30;;;;;;;0.52;0.30;;;13.20;93.50;;;;;;5041899;28;20403;-67
2022/03/10 10:48:08;;;;;;;0.10;0.10;;;13.40;93.60;;;;;;5041363;28;20048;-65
2022/03/10 10:50:45;;;;;;;1.25;0.47;;;13.00;91.80;;;;;;5042952;28;20044;-62
2022/03/10 10:53:32;;;;;;;0.73;0.73;;;12.60;93.80;;;;;;5041951;28;20400;-64
2022/03/10 10:55:58;;;;;;;0.25;0.22;;;13.20;93.20;;;;;;5049269;28;20562;-64
2022/03/10 10:58:26;;;;;;;0.20;0.20;;;13.50;92.30;;;;;;5061770;28;20051;-63
2022/03/10 11:00:52;;;;;;;0.70;0.63;;;13.50;92.30;;;;;;5060343;28;20043;-68
2022/03/10 11:03:45;;;;;;;0.28;0.20;;;13.80;91.60;;;;;;5052675;28;20049;-68
2022/03/10 11:06:12;;;;;;;0.20;0.10;;;13.80;90.60;;;;;;5039972;28;20057;-68
2022/03/10 11:08:37;;;;;;;0.80;0.45;;;13.90;90.50;;;;;;5042096;28;20037;-68
2022/03/10 11:11:04;;;;;;;0.73;0.20;;;13.90;89.40;;;;;;5042225;28;20136;-68
2022/03/10 11:13:30;;;;;;;0.32;0.22;;;14.00;88.50;;;;;;5040546;28;20061;-68
2022/03/10 11:15:57;;;;;;;0.88;0.88;;;13.90;87.70;;;;;;5040843;28;20048;-67
2022/03/10 11:18:23;;;;;;;0.75;0.73;;;13.50;86.80;;;;;;5042064;28;20414;-68
2022/03/10 11:21:11;;;;;;;0.20;0.20;;;13.90;85.40;;;;;;5041324;28;20037;-68
2022/03/10 11:23:58;;;;;;;1.35;0.85;;;13.80;84.30;;;;;;5042702;28;20049;-68
2022/03/10 11:26:33;;;;;;;1.48;1.08;;;13.70;86.10;;;;;;5046506;28;20119;-68
2022/03/10 11:29:00;;;;;;;0.43;0.32;;;13.50;82.90;;;;;;5045469;28;20060;-68
2022/03/10 11:31:28;;;;;;;1.27;1.17;;;13.50;84.00;;;;;;5045273;28;20037;-69
2022/03/10 11:33:54;;;;;;;0.10;0.10;;;13.70;84.00;;;;;;5045912;28;20088;-68
2022/03/10 11:36:21;;;;;;;0.43;0.30;;;13.90;83.80;;;;;;5046275;28;20118;-68
2022/03/10 11:38:55;;;;;;;1.30;0.40;;;13.80;81.20;;;;;;5045461;28;20045;-68
2022/03/10 11:41:27;;;;;;;0.10;0.10;;;13.70;81.50;;;;;;5046120;28;20056;-68
2022/03/10 11:44:01;;;;;;;0.60;0.55;;;13.60;80.50;;;;;;5045506;28;20844;-68
2022/03/10 11:46:31;;;;;;;0.63;0.63;;;13.60;80.90;;;;;;5045358;28;20041;-69
2022/03/10 11:49:09;;;;;;;1.05;0.93;;;13.80;81.10;;;;;;5045417;28;20404;-68
2022/03/10 11:51:54;;;;;;;1.30;1.20;;;13.80;80.70;;;;;;5045565;28;20045;-68
2022/03/10 11:54:30;;;;;;;0.13;0.13;;;13.90;80.10;;;;;;5028141;28;20064;-68
2022/03/10 11:57:03;;;;;;;1.35;0.75;;;13.80;79.10;;;;;;5044763;28;20068;-68
2022/03/10 11:59:31;;;;;;;0.20;0.20;;;13.70;79.80;;;;;;5027304;28;20099;-68
2022/03/10 12:01:58;;;;;;;0.22;0.20;;;14.20;81.40;;;;;;5048977;28;20049;-68
2022/03/10 12:04:38;;;;;;;1.15;0.88;;;14.70;80.60;;;;;;5052391;28;20340;-68
2022/03/10 12:07:05;;;;;;;0.60;0.22;;;14.10;78.60;;;;;;5045811;28;20045;-68
2022/03/10 12:09:38;;;;;;;1.02;0.68;;;14.20;79.90;;;;;;5045717;28;20082;-68
2022/03/10 12:12:20;;;;;;;0.90;0.73;;;14.30;79.30;;;;;;5045025;28;20041;-63
2022/03/10 12:14:47;;;;;;;1.45;0.60;;;14.40;79.30;;;;;;5044492;28;20127;-67
2022/03/10 12:17:52;;;;;;;0.30;0.30;;;14.70;79.90;;;;;;5045120;28;20484;-68
2022/03/10 12:20:21;;;;;;;1.52;0.90;;;14.60;79.10;;;;;;5045355;28;20045;-68
2022/03/10 12:23:15;;;;;;;0.60;0.57;;;14.50;79.20;;;;;;5044939;28;20044;-68
2022/03/10 12:25:59;;;;;;;2.05;1.10;;;14.70;79.10;;;;;;5044455;28;20125;-68
2022/03/10 12:28:31;;;;;;;0.20;0.20;;;15.10;79.20;;;;;;5045095;28;20296;-68
2022/03/10 12:31:19;;;;;;;3.10;0.75;;;15.00;78.80;;;;;;5043566;28;20369;-68
2022/03/10 12:33:45;;;;;;;0.50;0.50;;;15.10;78.30;;;;;;5026882;28;20048;-68
2022/03/10 12:36:11;;;;;;;0.10;0.10;;;14.90;78.70;;;;;;5044401;28;20048;-68
2022/03/10 12:38:45;;;;;;;0.28;0.28;;;15.30;79.60;;;;;;5044565;28;20041;-68
2022/03/10 12:41:14;;;;;;;2.28;0.43;;;15.40;76.70;;;;;;5044812;28;20526;-68
2022/03/10 12:43:41;;;;;;;1.08;0.80;;;15.10;76.50;;;;;;5044475;28;20048;-67
2022/03/10 12:46:07;;;;;;;0.22;0.22;;;15.10;76.00;;;;;;5043913;28;20037;-68
2022/03/10 12:48:57;;;;;;;1.20;1.10;;;15.40;76.40;;;;;;5044912;28;20041;-69
2022/03/10 12:51:29;;;;;;;0.40;0.40;;;15.10;76.50;;;;;;5044414;28;20044;-68
2022/03/10 12:53:56;;;;;;;1.73;1.52;;;15.00;76.80;;;;;;5026337;28;20107;-63
2022/03/10 12:56:22;;;;;;;2.35;1.00;;;14.80;78.10;;;;;;5044945;28;20045;-67
2022/03/10 12:58:50;;;;;;;0.38;0.38;;;15.10;77.40;;;;;;5043780;28;20048;-68
2022/03/10 13:01:16;;;;;;;2.20;0.82;;;15.10;76.00;;;;;;5046894;28;20466;-68
2022/03/10 13:03:56;;;;;;;0.20;0.20;;;15.10;76.80;;;;;;5052878;28;20044;-67